createdAt,value
2017-06-03T00:01:13.436Z,1003.23
2017-06-03T00:02:27.343Z,1003.16
2017-06-03T00:03:41.692Z,1003.17
2017-06-03T00:04:56.038Z,1003.22
2017-06-03T00:06:10.360Z,1003.23
2017-06-03T00:07:25.107Z,1003.23
2017-06-03T00:08:39.458Z,1003.21
2017-06-03T00:09:53.793Z,1003.2
2017-06-03T00:11:09.263Z,1003.2
2017-06-03T00:12:23.600Z,1003.18
2017-06-03T00:13:38.338Z,1003.14
2017-06-03T00:14:52.779Z,1003.17
2017-06-03T00:16:07.148Z,1003.16
2017-06-03T00:17:21.369Z,1003.22
2017-06-03T00:18:35.510Z,1003.2
2017-06-03T00:19:49.927Z,1003.18
2017-06-03T00:21:04.284Z,1003.19
2017-06-03T00:22:18.563Z,1003.24
2017-06-03T00:23:33.196Z,1003.22
2017-06-03T00:24:47.454Z,1003.25
2017-06-03T00:26:02.049Z,1003.26
2017-06-03T00:27:16.021Z,1003.2
2017-06-03T00:28:29.985Z,1003.16
2017-06-03T00:29:45.217Z,1003.15
2017-06-03T00:30:59.839Z,1003.11
2017-06-03T00:32:14.053Z,1003.09
2017-06-03T00:33:28.347Z,1003.09
2017-06-03T00:34:42.751Z,1003.1
2017-06-03T00:35:56.958Z,1003.07
2017-06-03T00:37:11.206Z,1003.04
2017-06-03T00:38:25.929Z,1003.05
2017-06-03T00:39:40.519Z,1003.01
2017-06-03T00:40:54.712Z,1003.02
2017-06-03T00:42:09.322Z,1002.98
2017-06-03T00:43:23.229Z,1002.97
2017-06-03T00:44:37.836Z,1002.96
2017-06-03T00:45:52.250Z,1003.01
2017-06-03T00:47:06.541Z,1002.95
2017-06-03T00:48:21.275Z,1002.98
2017-06-03T00:49:35.263Z,1002.99
2017-06-03T00:50:49.308Z,1002.98
2017-06-03T00:52:03.690Z,1003
2017-06-03T00:53:17.956Z,1003.03
2017-06-03T00:54:33.280Z,1003.04
2017-06-03T00:55:48.239Z,1003.08
2017-06-03T00:57:02.836Z,1003.04
2017-06-03T00:58:17.544Z,1003.04
2017-06-03T00:59:32.716Z,1003.06
2017-06-03T01:00:47.365Z,1003
2017-06-03T01:02:01.974Z,1003.07
2017-06-03T01:03:16.259Z,1002.99
2017-06-03T01:04:31.986Z,1002.96
2017-06-03T01:05:46.667Z,1002.92
2017-06-03T01:07:01.654Z,1002.87
2017-06-03T01:08:15.768Z,1002.84
2017-06-03T01:09:29.824Z,1002.79
2017-06-03T01:10:43.762Z,1002.77
2017-06-03T01:11:58.539Z,1002.79
2017-06-03T01:13:13.066Z,1002.79
2017-06-03T01:14:27.377Z,1002.8
2017-06-03T01:15:42.153Z,1002.83
2017-06-03T01:16:56.403Z,1002.82
2017-06-03T01:18:11.044Z,1002.85
2017-06-03T01:19:26.309Z,1002.83
2017-06-03T01:20:40.657Z,1002.82
2017-06-03T01:21:55.241Z,1002.79
2017-06-03T01:23:09.641Z,1002.82
2017-06-03T01:24:23.945Z,1002.82
2017-06-03T01:25:39.365Z,1002.85
2017-06-03T01:26:53.334Z,1002.87
2017-06-03T01:28:08.453Z,1002.8
2017-06-03T01:29:22.406Z,1002.82
2017-06-03T01:30:36.751Z,1002.79
2017-06-03T01:31:51.386Z,1002.79
2017-06-03T01:33:05.347Z,1002.74
2017-06-03T01:34:19.249Z,1002.74
2017-06-03T01:35:33.674Z,1002.76
2017-06-03T01:36:47.584Z,1002.7
2017-06-03T01:38:02.497Z,1002.75
2017-06-03T01:39:17.228Z,1002.75
2017-06-03T01:40:32.792Z,1002.77
2017-06-03T01:41:47.916Z,1002.76
2017-06-03T01:43:03.234Z,1002.75
2017-06-03T01:44:17.460Z,1002.8
2017-06-03T01:45:31.403Z,1002.76
2017-06-03T01:46:46.273Z,1002.76
2017-06-03T01:48:00.227Z,1002.77
2017-06-03T01:49:14.832Z,1002.8
2017-06-03T01:50:29.033Z,1002.74
2017-06-03T01:51:42.946Z,1002.75
2017-06-03T01:52:57.192Z,1002.74
2017-06-03T01:54:11.430Z,1002.75
2017-06-03T01:55:25.420Z,1002.73
2017-06-03T01:56:39.349Z,1002.74
2017-06-03T01:57:53.305Z,1002.69
2017-06-03T01:59:07.602Z,1002.68
2017-06-03T02:00:22.323Z,1002.7
2017-06-03T02:01:36.936Z,1002.65
2017-06-03T02:02:51.660Z,1002.67
2017-06-03T02:04:06.260Z,1002.68
2017-06-03T02:05:20.574Z,1002.67
2017-06-03T02:06:34.867Z,1002.61
2017-06-03T02:07:48.859Z,1002.61
2017-06-03T02:09:03.590Z,1002.67
2017-06-03T02:10:18.673Z,1002.65
2017-06-03T02:11:33.258Z,1002.66
2017-06-03T02:12:47.838Z,1002.69
2017-06-03T02:14:02.093Z,1002.68
2017-06-03T02:15:16.667Z,1002.64
2017-06-03T02:16:30.882Z,1002.64
2017-06-03T02:17:44.796Z,1002.65
2017-06-03T02:18:58.669Z,1002.61
2017-06-03T02:20:12.576Z,1002.64
2017-06-03T02:21:26.791Z,1002.66
2017-06-03T02:22:40.682Z,1002.65
2017-06-03T02:23:54.588Z,1002.6
2017-06-03T02:25:08.471Z,1002.6
2017-06-03T02:26:22.508Z,1002.59
2017-06-03T02:27:36.663Z,1002.59
2017-06-03T02:28:51.241Z,1002.57
2017-06-03T02:30:05.109Z,1002.58
2017-06-03T02:31:19.036Z,1002.57
2017-06-03T02:32:32.944Z,1002.56
2017-06-03T02:33:47.325Z,1002.53
2017-06-03T02:35:01.556Z,1002.48
2017-06-03T02:36:15.541Z,1002.52
2017-06-03T02:37:29.456Z,1002.51
2017-06-03T02:38:43.340Z,1002.51
2017-06-03T02:39:57.536Z,1002.56
2017-06-03T02:41:11.486Z,1002.52
2017-06-03T02:42:25.923Z,1002.49
2017-06-03T02:43:40.417Z,1002.49
2017-06-03T02:44:54.381Z,1002.49
2017-06-03T02:46:09.177Z,1002.5
2017-06-03T02:47:23.117Z,1002.46
2017-06-03T02:48:40.097Z,1002.49
2017-06-03T02:49:53.968Z,1002.5
2017-06-03T02:51:07.859Z,1002.46
2017-06-03T02:52:22.191Z,1002.49
2017-06-03T02:53:36.063Z,1002.47
2017-06-03T02:54:49.976Z,1002.44
2017-06-03T02:56:04.508Z,1002.46
2017-06-03T02:57:18.485Z,1002.45
2017-06-03T02:58:32.632Z,1002.5
2017-06-03T02:59:46.767Z,1002.5
2017-06-03T03:01:01.109Z,1002.5
2017-06-03T03:02:15.345Z,1002.44
2017-06-03T03:03:29.294Z,1002.43
2017-06-03T03:04:44.450Z,1002.41
2017-06-03T03:05:58.332Z,1002.45
2017-06-03T03:07:12.573Z,1002.44
2017-06-03T03:08:26.479Z,1002.48
2017-06-03T03:09:40.441Z,1002.47
2017-06-03T03:10:54.384Z,1002.49
2017-06-03T03:12:08.263Z,1002.49
2017-06-03T03:13:22.805Z,1002.51
2017-06-03T03:14:36.712Z,1002.45
2017-06-03T03:15:50.609Z,1002.46
2017-06-03T03:17:04.785Z,1002.45
2017-06-03T03:18:19.013Z,1002.47
2017-06-03T03:19:33.316Z,1002.47
2017-06-03T03:20:47.209Z,1002.47
2017-06-03T03:22:01.093Z,1002.49
2017-06-03T03:23:15.256Z,1002.54
2017-06-03T03:24:29.516Z,1002.53
2017-06-03T03:25:43.481Z,1002.56
2017-06-03T03:26:57.374Z,1002.56
2017-06-03T03:28:11.254Z,1002.57
2017-06-03T03:29:25.470Z,1002.58
2017-06-03T03:30:39.752Z,1002.56
2017-06-03T03:31:53.632Z,1002.57
2017-06-03T03:33:07.565Z,1002.58
2017-06-03T03:34:21.494Z,1002.52
2017-06-03T03:35:36.082Z,1002.54
2017-06-03T03:36:49.979Z,1002.56
2017-06-03T03:38:03.884Z,1002.55
2017-06-03T03:39:17.758Z,1002.59
2017-06-03T03:40:32.167Z,1002.59
2017-06-03T03:41:46.730Z,1002.57
2017-06-03T03:43:00.653Z,1002.55
2017-06-03T03:44:15.301Z,1002.57
2017-06-03T03:45:29.965Z,1002.57
2017-06-03T03:46:44.278Z,1002.59
2017-06-03T03:47:58.844Z,1002.58
2017-06-03T03:49:12.822Z,1002.61
2017-06-03T03:50:27.467Z,1002.62
2017-06-03T03:51:41.741Z,1002.65
2017-06-03T03:52:56.317Z,1002.66
2017-06-03T03:54:10.949Z,1002.7
2017-06-03T03:55:25.278Z,1002.71
2017-06-03T03:56:39.219Z,1002.68
2017-06-03T03:57:53.115Z,1002.68
2017-06-03T03:59:07.345Z,1002.73
2017-06-03T04:00:21.639Z,1002.75
2017-06-03T04:01:35.569Z,1002.75
2017-06-03T04:02:49.515Z,1002.75
2017-06-03T04:04:03.403Z,1002.77
2017-06-03T04:05:17.265Z,1002.76
2017-06-03T04:06:31.829Z,1002.71
2017-06-03T04:07:46.210Z,1002.74
2017-06-03T04:09:00.090Z,1002.72
2017-06-03T04:10:13.999Z,1002.69
2017-06-03T04:11:27.948Z,1002.66
2017-06-03T04:12:42.113Z,1002.67
2017-06-03T04:13:56.111Z,1002.67
2017-06-03T04:15:10.000Z,1002.74
2017-06-03T04:16:23.891Z,1002.65
2017-06-03T04:17:37.861Z,1002.7
2017-06-03T04:18:52.495Z,1002.69
2017-06-03T04:20:06.475Z,1002.69
2017-06-03T04:21:20.749Z,1002.72
2017-06-03T04:22:34.689Z,1002.7
2017-06-03T04:23:48.665Z,1002.71
2017-06-03T04:25:02.835Z,1002.63
2017-06-03T04:26:16.782Z,1002.7
2017-06-03T04:27:30.719Z,1002.68
2017-06-03T04:28:44.645Z,1002.68
2017-06-03T04:29:58.536Z,1002.69
2017-06-03T04:31:12.530Z,1002.68
2017-06-03T04:32:26.852Z,1002.66
2017-06-03T04:33:41.455Z,1002.64
2017-06-03T04:34:55.330Z,1002.66
2017-06-03T04:36:09.198Z,1002.65
2017-06-03T04:37:23.770Z,1002.64
2017-06-03T04:38:37.693Z,1002.62
2017-06-03T04:39:51.679Z,1002.65
2017-06-03T04:41:05.562Z,1002.7
2017-06-03T04:42:19.501Z,1002.68
2017-06-03T04:43:33.437Z,1002.67
2017-06-03T04:44:47.353Z,1002.7
2017-06-03T04:46:01.254Z,1002.66
2017-06-03T04:47:15.319Z,1002.63
2017-06-03T04:48:29.305Z,1002.59
2017-06-03T04:49:43.243Z,1002.62
2017-06-03T04:50:57.117Z,1002.58
2017-06-03T04:52:11.014Z,1002.58
2017-06-03T04:53:25.524Z,1002.58
2017-06-03T04:54:39.406Z,1002.57
2017-06-03T04:55:53.971Z,1002.52
2017-06-03T04:57:07.891Z,1002.53
2017-06-03T04:58:21.804Z,1002.57
2017-06-03T04:59:35.830Z,1002.57
2017-06-03T05:00:50.961Z,1002.58
2017-06-03T05:02:05.218Z,1002.62
2017-06-03T05:03:19.113Z,1002.6
2017-06-03T05:04:33.008Z,1002.64
2017-06-03T05:05:47.000Z,1002.6
2017-06-03T05:07:00.973Z,1002.66
2017-06-03T05:08:15.162Z,1002.63
2017-06-03T05:09:29.063Z,1002.63
2017-06-03T05:10:43.024Z,1002.62
2017-06-03T05:11:57.369Z,1002.59
2017-06-03T05:13:11.265Z,1002.61
2017-06-03T05:14:25.451Z,1002.64
2017-06-03T05:15:39.441Z,1002.68
2017-06-03T05:16:53.461Z,1002.69
2017-06-03T05:18:07.833Z,1002.64
2017-06-03T05:19:21.753Z,1002.7
2017-06-03T05:20:36.131Z,1002.64
2017-06-03T05:21:50.085Z,1002.67
2017-06-03T05:23:04.317Z,1002.66
2017-06-03T05:24:18.529Z,1002.64
2017-06-03T05:25:32.413Z,1002.62
2017-06-03T05:26:46.763Z,1002.6
2017-06-03T05:28:01.105Z,1002.57
2017-06-03T05:29:15.018Z,1002.63
2017-06-03T05:30:28.911Z,1002.61
2017-06-03T05:31:42.871Z,1002.61
2017-06-03T05:32:57.064Z,1002.62
2017-06-03T05:34:10.963Z,1002.59
2017-06-03T05:35:25.348Z,1002.63
2017-06-03T05:36:39.242Z,1002.6
2017-06-03T05:37:53.570Z,1002.59
2017-06-03T05:39:07.762Z,1002.6
2017-06-03T05:40:22.110Z,1002.59
2017-06-03T05:41:36.145Z,1002.6
2017-06-03T05:42:50.437Z,1002.62
2017-06-03T05:44:04.345Z,1002.66
2017-06-03T05:45:18.530Z,1002.67
2017-06-03T05:46:32.778Z,1002.71
2017-06-03T05:47:46.743Z,1002.69
2017-06-03T05:49:00.792Z,1002.72
2017-06-03T05:50:14.706Z,1002.75
2017-06-03T05:51:28.681Z,1002.71
2017-06-03T05:52:42.634Z,1002.72
2017-06-03T05:53:56.506Z,1002.71
2017-06-03T05:55:10.407Z,1002.76
2017-06-03T05:56:24.402Z,1002.75
2017-06-03T05:57:38.700Z,1002.71
2017-06-03T05:58:52.667Z,1002.77
2017-06-03T06:00:06.555Z,1002.75
2017-06-03T06:01:20.529Z,1002.72
2017-06-03T06:02:34.437Z,1002.69
2017-06-03T06:03:48.428Z,1002.72
2017-06-03T06:05:02.291Z,1002.73
2017-06-03T06:06:16.260Z,1002.74
2017-06-03T06:07:30.508Z,1002.7
2017-06-03T06:08:45.151Z,1002.73
2017-06-03T06:09:59.112Z,1002.75
2017-06-03T06:11:13.008Z,1002.71
2017-06-03T06:12:27.264Z,1002.69
2017-06-03T06:13:41.135Z,1002.66
2017-06-03T06:14:55.032Z,1002.63
2017-06-03T06:16:09.363Z,1002.65
2017-06-03T06:17:23.333Z,1002.61
2017-06-03T06:18:37.564Z,1002.64
2017-06-03T06:19:51.432Z,1002.61
2017-06-03T06:21:05.364Z,1002.59
2017-06-03T06:22:20.295Z,1002.58
2017-06-03T06:23:34.666Z,1002.6
2017-06-03T06:24:48.902Z,1002.61
2017-06-03T06:26:02.833Z,1002.63
2017-06-03T06:27:17.081Z,1002.66
2017-06-03T06:28:31.274Z,1002.64
2017-06-03T06:29:45.641Z,1002.65
2017-06-03T06:30:59.513Z,1002.67
2017-06-03T06:32:14.089Z,1002.62
2017-06-03T06:33:28.931Z,1002.66
2017-06-03T06:34:43.500Z,1002.64
2017-06-03T06:35:57.482Z,1002.63
2017-06-03T06:37:11.377Z,1002.63
2017-06-03T06:38:25.702Z,1002.67
2017-06-03T06:39:39.594Z,1002.66
2017-06-03T06:40:53.796Z,1002.7
2017-06-03T06:42:07.951Z,1002.67
2017-06-03T06:43:21.848Z,1002.64
2017-06-03T06:44:35.732Z,1002.64
2017-06-03T06:45:49.645Z,1002.67
2017-06-03T06:47:04.256Z,1002.66
2017-06-03T06:48:18.471Z,1002.66
2017-06-03T06:49:32.400Z,1002.61
2017-06-03T06:50:46.310Z,1002.6
2017-06-03T06:52:00.211Z,1002.6
2017-06-03T06:53:14.449Z,1002.61
2017-06-03T06:54:28.333Z,1002.62
2017-06-03T06:55:42.230Z,1002.59
2017-06-03T06:56:56.513Z,1002.58
2017-06-03T06:58:10.468Z,1002.56
2017-06-03T06:59:24.724Z,1002.61
2017-06-03T07:00:38.749Z,1002.61
2017-06-03T07:01:53.171Z,1002.63
2017-06-03T07:03:07.832Z,1002.63
2017-06-03T07:04:21.731Z,1002.6
2017-06-03T07:05:36.678Z,1002.63
2017-06-03T07:06:50.595Z,1002.64
2017-06-03T07:08:04.546Z,1002.66
2017-06-03T07:09:18.618Z,1002.66
2017-06-03T07:10:32.897Z,1002.71
2017-06-03T07:11:48.207Z,1002.66
2017-06-03T07:13:02.136Z,1002.61
2017-06-03T07:14:16.086Z,1002.62
2017-06-03T07:15:30.113Z,1002.61
2017-06-03T07:16:44.394Z,1002.59
2017-06-03T07:17:58.647Z,1002.58
2017-06-03T07:19:12.589Z,1002.52
2017-06-03T07:20:26.838Z,1002.56
2017-06-03T07:21:41.800Z,1002.55
2017-06-03T07:22:55.681Z,1002.5
2017-06-03T07:24:10.337Z,1002.47
2017-06-03T07:25:24.591Z,1002.52
2017-06-03T07:26:38.750Z,1002.51
2017-06-03T07:27:52.659Z,1002.48
2017-06-03T07:29:06.970Z,1002.5
2017-06-03T07:30:21.150Z,1002.52
2017-06-03T07:31:36.717Z,1002.52
2017-06-03T07:32:52.542Z,1002.51
2017-06-03T07:34:06.869Z,1002.51
2017-06-03T07:35:21.360Z,1002.5
2017-06-03T07:36:35.619Z,1002.51
2017-06-03T07:37:49.523Z,1002.5
2017-06-03T07:39:03.424Z,1002.52
2017-06-03T07:40:17.391Z,1002.54
2017-06-03T07:41:31.299Z,1002.55
2017-06-03T07:42:46.270Z,1002.57
2017-06-03T07:44:00.516Z,1002.57
2017-06-03T07:45:15.166Z,1002.58
2017-06-03T07:46:29.476Z,1002.58
2017-06-03T07:47:43.427Z,1002.57
2017-06-03T07:48:57.898Z,1002.57
2017-06-03T07:50:12.868Z,1002.54
2017-06-03T07:51:26.810Z,1002.51
2017-06-03T07:52:40.721Z,1002.56
2017-06-03T07:53:54.645Z,1002.58
2017-06-03T07:55:09.639Z,1002.52
2017-06-03T07:56:23.931Z,1002.57
2017-06-03T07:57:38.354Z,1002.56
2017-06-03T07:58:52.662Z,1002.59
2017-06-03T08:00:06.561Z,1002.6
2017-06-03T08:01:21.301Z,1002.55
2017-06-03T08:02:35.368Z,1002.54
2017-06-03T08:03:49.278Z,1002.55
2017-06-03T08:05:03.287Z,1002.53
2017-06-03T08:06:17.248Z,1002.51
2017-06-03T08:07:32.106Z,1002.51
2017-06-03T08:08:46.016Z,1002.56
2017-06-03T08:10:00.231Z,1002.55
2017-06-03T08:11:14.106Z,1002.54
2017-06-03T08:12:28.032Z,1002.52
2017-06-03T08:13:41.976Z,1002.48
2017-06-03T08:14:55.862Z,1002.45
2017-06-03T08:16:09.748Z,1002.43
2017-06-03T08:17:24.446Z,1002.47
2017-06-03T08:18:38.376Z,1002.45
2017-06-03T08:19:52.715Z,1002.47
2017-06-03T08:21:08.024Z,1002.47
2017-06-03T08:22:22.338Z,1002.45
2017-06-03T08:23:36.646Z,1002.42
2017-06-03T08:24:52.155Z,1002.39
2017-06-03T08:26:07.448Z,1002.4
2017-06-03T08:27:22.766Z,1002.4
2017-06-03T08:28:38.138Z,1002.38
2017-06-03T08:29:53.203Z,1002.37
2017-06-03T08:31:07.839Z,1002.36
2017-06-03T08:32:23.197Z,1002.34
2017-06-03T08:33:38.201Z,1002.38
2017-06-03T08:34:54.545Z,1002.37
2017-06-03T08:36:08.478Z,1002.39
2017-06-03T08:37:23.633Z,1002.35
2017-06-03T08:38:37.810Z,1002.36
2017-06-03T08:39:51.737Z,1002.36
2017-06-03T08:41:06.018Z,1002.34
2017-06-03T08:42:20.765Z,1002.35
2017-06-03T08:43:35.453Z,1002.4
2017-06-03T08:44:49.661Z,1002.36
2017-06-03T08:46:04.771Z,1002.34
2017-06-03T08:47:19.589Z,1002.37
2017-06-03T08:48:35.064Z,1002.41
2017-06-03T08:49:49.736Z,1002.38
2017-06-03T08:51:04.346Z,1002.43
2017-06-03T08:52:18.715Z,1002.43
2017-06-03T08:53:33.804Z,1002.38
2017-06-03T08:54:48.805Z,1002.42
2017-06-03T08:56:03.781Z,1002.39
2017-06-03T08:57:19.116Z,1002.38
2017-06-03T08:58:34.951Z,1002.38
2017-06-03T08:59:50.261Z,1002.36
2017-06-03T09:01:04.765Z,1002.36
2017-06-03T09:02:19.345Z,1002.37
2017-06-03T09:03:34.626Z,1002.35
2017-06-03T09:04:49.254Z,1002.35
2017-06-03T09:06:04.469Z,1002.32
2017-06-03T09:07:18.534Z,1002.32
2017-06-03T09:08:58.440Z,1002.3
2017-06-03T09:10:12.995Z,1002.26
2017-06-03T09:11:27.607Z,1002.2
2017-06-03T09:12:43.517Z,1002.26
2017-06-03T09:13:57.670Z,1002.25
2017-06-03T09:15:12.021Z,1002.21
2017-06-03T09:16:26.682Z,1002.26
2017-06-03T09:17:41.504Z,1002.24
2017-06-03T09:18:56.326Z,1002.25
2017-06-03T09:20:11.299Z,1002.26
2017-06-03T09:21:25.543Z,1002.22
2017-06-03T09:22:39.791Z,1002.17
2017-06-03T09:23:53.713Z,1002.18
2017-06-03T09:25:08.295Z,1002.19
2017-06-03T09:26:22.541Z,1002.16
2017-06-03T09:27:36.909Z,1002.15
2017-06-03T09:28:51.173Z,1002.12
2017-06-03T09:30:05.849Z,1002.05
2017-06-03T09:31:20.126Z,1002.09
2017-06-03T09:32:34.361Z,1002.06
2017-06-03T09:33:49.074Z,1002.05
2017-06-03T09:35:03.094Z,1002.03
2017-06-03T09:36:17.328Z,1002.03
2017-06-03T09:37:31.923Z,1002.02
2017-06-03T09:38:45.905Z,1001.98
2017-06-03T09:40:00.139Z,1001.99
2017-06-03T09:41:14.526Z,1002.01
2017-06-03T09:42:28.429Z,1001.99
2017-06-03T09:43:42.371Z,1001.98
2017-06-03T09:44:56.359Z,1001.98
2017-06-03T09:46:10.542Z,1001.95
2017-06-03T09:47:24.476Z,1001.98
2017-06-03T09:48:38.486Z,1001.96
2017-06-03T09:49:52.787Z,1001.95
2017-06-03T09:51:07.300Z,1001.92
2017-06-03T09:52:22.380Z,1001.92
2017-06-03T09:53:36.713Z,1001.9
2017-06-03T09:54:50.785Z,1001.89
2017-06-03T09:56:04.863Z,1001.87
2017-06-03T09:57:19.641Z,1001.89
2017-06-03T09:58:33.881Z,1001.83
2017-06-03T09:59:48.141Z,1001.82
2017-06-03T10:01:02.499Z,1001.78
2017-06-03T10:02:17.221Z,1001.75
2017-06-03T10:03:31.149Z,1001.74
2017-06-03T10:04:45.510Z,1001.74
2017-06-03T10:05:59.435Z,1001.73
2017-06-03T10:07:13.365Z,1001.68
2017-06-03T10:08:27.418Z,1001.66
2017-06-03T10:09:41.376Z,1001.66
2017-06-03T10:10:55.701Z,1001.62
2017-06-03T10:12:10.656Z,1001.67
2017-06-03T10:13:25.177Z,1001.72
2017-06-03T10:14:39.458Z,1001.62
2017-06-03T10:15:53.737Z,1001.62
2017-06-03T10:17:07.650Z,1001.56
2017-06-03T10:18:21.570Z,1001.55
2017-06-03T10:19:35.481Z,1001.53
2017-06-03T10:20:49.445Z,1001.51
2017-06-03T10:22:04.407Z,1001.45
2017-06-03T10:23:19.038Z,1001.46
2017-06-03T10:24:32.928Z,1001.45
2017-06-03T10:25:47.271Z,1001.41
2017-06-03T10:27:01.622Z,1001.34
2017-06-03T10:28:15.615Z,1001.35
2017-06-03T10:29:30.406Z,1001.32
2017-06-03T10:30:44.350Z,1001.28
2017-06-03T10:31:58.593Z,1001.28
2017-06-03T10:33:12.934Z,1001.19
2017-06-03T10:34:26.838Z,1001.22
2017-06-03T10:35:41.403Z,1001.2
2017-06-03T10:36:56.004Z,1001.2
2017-06-03T10:38:10.249Z,1001.17
2017-06-03T10:39:24.166Z,1001.16
2017-06-03T10:40:38.100Z,1001.18
2017-06-03T10:41:53.021Z,1001.17
2017-06-03T10:43:07.456Z,1001.14
2017-06-03T10:44:21.734Z,1001.15
2017-06-03T10:45:35.708Z,1001.1
2017-06-03T10:46:50.368Z,1001.09
2017-06-03T10:48:05.395Z,1001.07
2017-06-03T10:49:19.289Z,1001.05
2017-06-03T10:50:34.212Z,1001.05
2017-06-03T10:51:48.748Z,1001.08
2017-06-03T10:53:02.704Z,1001.05
2017-06-03T10:54:17.269Z,1001
2017-06-03T10:55:31.668Z,1000.93
2017-06-03T10:56:45.591Z,1000.99
2017-06-03T10:58:00.304Z,1001.03
2017-06-03T10:59:14.198Z,1000.98
2017-06-03T11:00:29.186Z,1000.95
2017-06-03T11:01:43.077Z,1001
2017-06-03T11:02:57.363Z,1000.99
2017-06-03T11:04:11.307Z,1000.92
2017-06-03T11:05:25.231Z,1000.9
2017-06-03T11:06:39.506Z,1000.91
2017-06-03T11:07:53.794Z,1000.89
2017-06-03T11:09:08.111Z,1000.92
2017-06-03T11:10:22.006Z,1000.92
2017-06-03T11:11:36.363Z,1000.91
2017-06-03T11:12:50.576Z,1000.83
2017-06-03T11:14:04.527Z,1000.82
2017-06-03T11:15:18.854Z,1000.83
2017-06-03T11:16:33.136Z,1000.81
2017-06-03T11:17:47.050Z,1000.78
2017-06-03T22:52:31.331Z,999.45
2017-06-03T22:53:45.465Z,999.57
2017-06-03T22:54:59.934Z,999.53
2017-06-03T22:56:14.024Z,999.48
2017-06-03T22:57:28.050Z,999.49
2017-06-03T22:58:42.730Z,999.52
2017-06-03T22:59:57.527Z,999.51
2017-06-03T23:01:11.552Z,999.51
2017-06-03T23:02:25.732Z,999.48
2017-06-03T23:03:39.920Z,999.57
2017-06-03T23:04:56.047Z,999.53
2017-06-03T23:06:10.131Z,999.57
2017-06-03T23:07:24.216Z,999.53
2017-06-03T23:08:38.700Z,999.54
2017-06-03T23:09:52.991Z,999.52
2017-06-03T23:11:07.284Z,999.54
2017-06-03T23:12:22.531Z,999.53
2017-06-03T23:13:37.318Z,999.52
2017-06-03T23:14:52.300Z,999.5
2017-06-03T23:16:06.590Z,999.52
2017-06-03T23:17:21.502Z,999.53
2017-06-03T23:18:37.729Z,999.49
2017-06-03T23:19:55.774Z,999.55
2017-06-03T23:21:11.020Z,999.59
2017-06-03T23:22:26.195Z,999.57
2017-06-03T23:23:41.420Z,999.6
2017-06-03T23:24:56.535Z,999.58
2017-06-03T23:26:11.774Z,999.63
2017-06-03T23:27:26.298Z,999.64
2017-06-03T23:28:41.194Z,999.59
2017-06-03T23:29:55.588Z,999.56
2017-06-03T23:31:37.012Z,999.56
2017-06-03T23:37:44.001Z,999.49
2017-06-03T23:38:59.301Z,999.5
2017-06-03T23:40:15.969Z,999.52
2017-06-03T23:41:30.740Z,999.52
2017-06-03T23:42:45.292Z,999.52
2017-06-03T23:43:59.417Z,999.51
2017-06-03T23:45:15.550Z,999.55
2017-06-03T23:46:31.302Z,999.58
2017-06-03T23:47:46.474Z,999.6
2017-06-03T23:49:01.149Z,999.6
2017-06-03T23:50:15.578Z,999.6
2017-06-03T23:51:29.662Z,999.62
2017-06-03T23:52:43.832Z,999.61
2017-06-03T23:53:58.834Z,999.64
2017-06-03T23:55:14.488Z,999.61
2017-06-03T23:56:29.760Z,999.63
2017-06-03T23:57:44.389Z,999.61
2017-06-03T23:58:58.870Z,999.68
